Gregory, TX

4:58 AM CDT on June 30, 2015 (GMT -0500)
Briar/Marriott Neighborhood | | Change Station
CLOSE
Current Station
Personal Weather Station
Location: Portland, TX
Elevation: 59 ft
Nearby Weather Stations

Elev 59 ft 27.89 °N, 97.34 °W | Updated 7 minutes ago

Partly Cloudy
Partly Cloudy
82.9 °F
Feels Like 93 °F
N
3.8
Wind Variable Wind from SE

Today
High -- | Low -- °F
--% Chance of Precip.
Yesterday
High -- | Low -- °F
Precip. -- in
6:36 AM 8:29 PM
Waxing Gibbous, 97% visible
Pressure 29.99 in
Visibility 7.0 miles
Clouds Scattered Clouds 1500 ft
Scattered Clouds 2300 ft
Mostly Cloudy 2700 ft
Heat Index 93 °F
Dew Point 79 °F
Humidity 87%
Rainfall in
Snow Depth Not available.
UV 0 out of 12
Pollen 4.10 out of 12
Air Quality Not available.
Flu Activity Local Activity
METAR KTFP 300935Z AUTO 13004KT 7SM SCT015 SCT023 BKN027 27/26 A2999 RMK AO2 LTG DSNT NE AND E T02740255

More Conditions Fewer Conditions

Pressure 29.99 in
Visibility 7.0 miles
Clouds Scattered Clouds 1500 ft
Scattered Clouds 2300 ft
Mostly Cloudy 2700 ft
Heat Index 93 °F
Dew Point 79 °F
Humidity 87%
Rainfall in
Snow Depth Not available.
UV 0 out of 12
Pollen 4.10 out of 12
Air Quality Not available.
Flu Activity Local Activity
METAR KTFP 300935Z AUTO 13004KT 7SM SCT015 SCT023 BKN027 27/26 A2999 RMK AO2 LTG DSNT NE AND E T02740255

More Conditions Fewer Conditions

10-Day Weather Forecast

×

Almanac

Astronomy

Jun. 30, 2015 Rise Set
Actual Time
Civil Twilight
Nautical Twilight
Astronomical Twilight
Moon
Length of Visible Light
Length of Day
Tomorrow will be .
, % of the Moon is Illuminated

Today's Extremes

State Highs State Lows

Community

WunderPhotos

Upload Photos

1,833,983 photos uploaded!

WunderBlogs® & News

Nearby

Air Quality

  Air Quality AQ Index Pollutant
Not available.

Snow Depth

Station Depth Elevation

Earthquake Activity

City Distance Mag. Time & Date
Minimum magnitude displayed is 2.5.

Coastal Water Temperatures

Place Temperature

Stations

Nearby Weather Stations

Station Location Temp. Windchill Dew Point Humidity Wind Precip. Elev Updated Type